createdAt,value
2019-02-04T00:01:33.543Z,5.40
2019-02-04T00:04:30.497Z,4.40
2019-02-04T00:07:20.424Z,5.00
2019-02-04T00:10:13.223Z,5.75
2019-02-04T00:13:06.024Z,3.50
2019-02-04T00:15:59.081Z,4.75
2019-02-04T00:18:52.148Z,4.15
2019-02-04T00:21:46.228Z,5.70
2019-02-04T00:24:39.271Z,4.28
2019-02-04T00:27:32.584Z,5.03
2019-02-04T00:30:25.640Z,4.42
2019-02-04T00:33:18.695Z,4.67
2019-02-04T00:36:18.663Z,3.90
2019-02-04T00:39:11.471Z,5.03
2019-02-04T00:42:04.262Z,3.67
2019-02-04T00:44:57.062Z,3.62
2019-02-04T00:47:50.377Z,3.67
2019-02-04T00:50:44.200Z,4.92
2019-02-04T00:53:37.767Z,5.05
2019-02-04T00:56:32.615Z,5.22
2019-02-04T00:59:26.551Z,3.50
2019-02-04T01:02:15.653Z,5.22
2019-02-04T01:05:16.136Z,3.65
2019-02-04T01:08:08.935Z,5.28
2019-02-04T01:11:01.740Z,3.75
2019-02-04T01:13:54.791Z,3.60
2019-02-04T01:16:47.597Z,5.45
2019-02-04T01:19:40.392Z,5.78
2019-02-04T01:22:33.197Z,3.65
2019-02-04T01:25:23.176Z,4.22
2019-02-04T01:28:16.500Z,4.28
2019-02-04T01:31:09.287Z,4.62
2019-02-04T01:34:02.089Z,3.62
2019-02-04T01:36:56.167Z,4.35
2019-02-04T01:39:56.904Z,4.15
2019-02-04T01:42:49.704Z,4.80
2019-02-04T01:45:42.759Z,3.77
2019-02-04T01:48:35.558Z,5.12
2019-02-04T01:51:28.361Z,3.50
2019-02-04T01:54:21.428Z,3.12
2019-02-04T01:57:14.475Z,3.57
2019-02-04T02:00:07.530Z,3.47
2019-02-04T02:02:56.747Z,3.85
2019-02-04T02:05:49.805Z,4.42
2019-02-04T02:08:42.863Z,4.00
2019-02-04T02:11:36.969Z,4.53
2019-02-04T02:14:27.175Z,3.55
2019-02-04T02:17:26.399Z,3.98
2019-02-04T02:20:10.217Z,3.22
2019-02-04T02:23:04.297Z,4.20
2019-02-04T02:25:57.101Z,3.47
2019-02-04T02:28:50.411Z,3.87
2019-02-04T02:31:43.466Z,2.67
2019-02-04T02:34:36.263Z,3.87
2019-02-04T02:37:29.064Z,3.63
2019-02-04T02:40:21.863Z,3.33
2019-02-04T02:43:14.687Z,3.08
2019-02-04T02:46:07.465Z,3.62
2019-02-04T02:49:02.823Z,2.70
2019-02-04T02:51:55.622Z,3.52
2019-02-04T02:54:48.425Z,2.37
2019-02-04T02:57:41.221Z,3.00
2019-02-04T03:00:35.560Z,3.08
2019-02-04T03:03:28.365Z,3.27
2019-02-04T03:06:21.670Z,2.20
2019-02-04T03:09:10.635Z,2.70
2019-02-04T03:11:56.037Z,2.37
2019-02-04T03:14:48.810Z,2.67
2019-02-04T03:17:51.545Z,2.90
2019-02-04T03:20:34.664Z,3.20
2019-02-04T03:23:35.400Z,2.60
2019-02-04T03:26:44.070Z,3.00
2019-02-04T03:29:36.887Z,2.62
2019-02-04T03:32:30.225Z,2.75
2019-02-04T03:35:21.192Z,2.60
2019-02-04T03:38:13.992Z,2.60
2019-02-04T03:41:07.816Z,2.15
2019-02-04T03:43:57.318Z,2.95
2019-02-04T03:46:51.625Z,2.72
2019-02-04T03:49:38.535Z,2.40
2019-02-04T03:52:31.845Z,2.70
2019-02-04T03:55:25.170Z,2.33
2019-02-04T03:58:17.976Z,3.50
2019-02-04T04:01:10.759Z,2.33
2019-02-04T04:04:03.816Z,2.95
2019-02-04T04:06:57.147Z,2.77
2019-02-04T04:09:50.022Z,2.35
2019-02-04T04:12:42.727Z,2.75
2019-02-04T04:15:35.541Z,2.45
2019-02-04T04:18:25.515Z,3.47
2019-02-04T04:21:18.313Z,2.40
2019-02-04T04:24:11.366Z,2.47
2019-02-04T04:27:04.423Z,2.77
2019-02-04T04:29:57.482Z,2.47
2019-02-04T04:32:50.541Z,2.17
2019-02-04T04:35:43.590Z,1.77
2019-02-04T04:38:36.390Z,2.90
2019-02-04T04:41:30.477Z,2.30
2019-02-04T04:44:23.276Z,2.08
2019-02-04T04:47:16.077Z,2.12
2019-02-04T04:50:09.131Z,2.47
2019-02-04T04:53:02.186Z,1.47
2019-02-04T04:55:55.497Z,2.50
2019-02-04T04:58:48.302Z,3.20
2019-02-04T05:01:41.606Z,2.35
2019-02-04T05:04:34.417Z,2.83
2019-02-04T05:07:27.230Z,2.42
2019-02-04T05:10:21.797Z,2.30
2019-02-04T05:13:15.628Z,2.87
2019-02-04T05:16:08.425Z,3.27
2019-02-04T05:19:01.223Z,2.12
2019-02-04T05:21:54.022Z,2.25
2019-02-04T05:24:47.591Z,2.35
2019-02-04T05:27:40.904Z,3.00
2019-02-04T05:30:34.728Z,1.95
2019-02-04T05:33:28.555Z,2.50
2019-02-04T05:36:21.353Z,2.42
2019-02-04T05:39:10.313Z,2.15
2019-02-04T05:42:03.120Z,3.20
2019-02-04T05:44:55.911Z,3.02
2019-02-04T05:47:51.731Z,3.17
2019-02-04T05:50:42.792Z,2.65
2019-02-04T05:53:35.591Z,2.55
2019-02-04T05:56:28.646Z,3.22
2019-02-04T05:59:21.446Z,2.17
2019-02-04T06:02:14.260Z,3.37
2019-02-04T06:05:16.776Z,2.35
2019-02-04T06:08:10.091Z,3.45
2019-02-04T06:11:02.891Z,2.20
2019-02-04T06:13:55.948Z,2.42
2019-02-04T06:16:49.001Z,3.52
2019-02-04T06:19:42.315Z,3.98
2019-02-04T06:22:35.121Z,4.70
2019-02-04T06:25:25.367Z,2.62
2019-02-04T06:28:18.152Z,3.47
2019-02-04T06:31:11.975Z,3.10
2019-02-04T06:34:05.288Z,2.83
2019-02-04T06:37:03.483Z,3.72
2019-02-04T06:39:56.262Z,5.25
2019-02-04T06:42:49.062Z,3.55
2019-02-04T06:45:42.121Z,2.20
2019-02-04T06:48:35.179Z,3.37
2019-02-04T06:51:36.182Z,3.37
2019-02-04T06:54:29.222Z,2.52
2019-02-04T06:57:22.279Z,4.42
2019-02-04T07:00:15.871Z,3.75
2019-02-04T07:03:09.162Z,3.20
2019-02-04T07:06:03.239Z,3.65
2019-02-04T07:08:56.550Z,3.10
2019-02-04T07:11:49.351Z,4.10
2019-02-04T07:14:42.407Z,3.98
2019-02-04T07:17:36.236Z,4.28
2019-02-04T07:20:25.959Z,3.90
2019-02-04T07:23:18.762Z,3.55
2019-02-04T07:26:12.585Z,3.00
2019-02-04T07:29:14.087Z,3.75
2019-02-04T07:32:08.166Z,3.50
2019-02-04T07:35:01.224Z,2.85
2019-02-04T07:37:54.280Z,5.03
2019-02-04T07:40:48.103Z,4.40
2019-02-04T07:43:41.159Z,4.42
2019-02-04T07:46:33.960Z,4.33
2019-02-04T07:49:35.017Z,5.60
2019-02-04T07:52:21.097Z,4.05
2019-02-04T07:55:14.157Z,2.77
2019-02-04T07:58:06.954Z,3.10
2019-02-04T08:00:56.169Z,2.87
2019-02-04T08:03:48.972Z,4.55
2019-02-04T08:06:42.279Z,3.70
2019-02-04T08:09:31.751Z,3.92
2019-02-04T08:12:21.739Z,3.37
2019-02-04T08:15:15.056Z,2.60
2019-02-04T08:18:07.848Z,3.58
2019-02-04T08:20:56.811Z,3.85
2019-02-04T08:23:49.614Z,3.80
2019-02-04T08:26:42.406Z,4.67
2019-02-04T08:29:31.624Z,4.15
2019-02-04T08:32:24.422Z,2.87
2019-02-04T08:35:17.234Z,3.90
2019-02-04T08:38:07.209Z,3.58
2019-02-04T08:40:53.610Z,4.37
2019-02-04T08:43:47.686Z,4.40
2019-02-04T08:46:40.485Z,4.70
2019-02-04T08:49:33.288Z,3.65
2019-02-04T08:52:26.087Z,3.37
2019-02-04T08:55:19.142Z,2.60
2019-02-04T08:58:12.200Z,3.15
2019-02-04T09:01:06.282Z,3.08
2019-02-04T09:03:59.078Z,2.60
2019-02-04T09:06:52.159Z,3.12
2019-02-04T09:09:39.879Z,2.95
2019-02-04T09:12:32.875Z,4.45
2019-02-04T09:15:25.675Z,2.40
2019-02-04T09:18:18.475Z,3.80
2019-02-04T09:21:07.687Z,4.15
2019-02-04T09:24:00.743Z,2.80
2019-02-04T09:26:53.799Z,4.42
2019-02-04T09:29:44.154Z,3.60
2019-02-04T09:32:36.838Z,3.10
2019-02-04T09:35:31.191Z,2.95
2019-02-04T09:38:24.236Z,2.12
2019-02-04T09:41:21.127Z,2.67
2019-02-04T09:44:10.343Z,3.10
2019-02-04T09:47:03.148Z,3.00
2019-02-04T09:49:55.943Z,3.00
2019-02-04T09:52:48.745Z,3.50
2019-02-04T09:55:45.894Z,2.50
2019-02-04T09:58:38.951Z,3.08
2019-02-04T10:01:32.012Z,3.37
2019-02-04T10:04:20.971Z,3.12
2019-02-04T10:07:14.029Z,3.10
2019-02-04T10:10:06.822Z,2.10
2019-02-04T10:12:56.809Z,2.85
2019-02-04T10:15:52.182Z,2.87
2019-02-04T10:18:45.235Z,3.33
2019-02-04T10:21:38.063Z,4.50
2019-02-04T10:24:31.080Z,3.33
2019-02-04T10:27:25.193Z,2.30
2019-02-04T10:30:19.249Z,3.17
2019-02-04T10:33:12.593Z,2.12
2019-02-04T10:36:05.640Z,3.05
2019-02-04T10:38:58.448Z,2.10
2019-02-04T10:41:51.233Z,2.55
2019-02-04T10:44:44.128Z,3.30
2019-02-04T10:47:36.913Z,3.35
2019-02-04T10:50:32.426Z,3.12
2019-02-04T10:53:21.645Z,2.20
2019-02-04T10:56:16.339Z,2.33
2019-02-04T10:59:07.500Z,2.47
2019-02-04T11:02:01.335Z,3.58
2019-02-04T11:04:54.636Z,3.10
2019-02-04T11:07:47.697Z,2.55
2019-02-04T11:10:44.335Z,3.55
2019-02-04T11:13:40.967Z,2.45
2019-02-04T11:16:34.324Z,3.62
2019-02-04T11:19:28.363Z,3.52
2019-02-04T11:22:21.672Z,3.60
2019-02-04T11:25:14.761Z,2.75
2019-02-04T11:28:07.783Z,2.20
2019-02-04T11:31:12.117Z,3.17
2019-02-04T11:34:05.454Z,2.08
2019-02-04T11:36:54.635Z,3.80
2019-02-04T11:39:47.465Z,2.92
2019-02-04T11:42:36.437Z,2.87
2019-02-04T11:45:21.819Z,2.65
2019-02-04T11:48:15.863Z,3.05
2019-02-04T11:51:09.655Z,3.17
2019-02-04T11:54:00.937Z,3.12
2019-02-04T11:56:53.996Z,2.42
2019-02-04T11:59:46.792Z,3.27
2019-02-04T12:02:37.036Z,3.35
2019-02-04T12:05:31.109Z,3.83
2019-02-04T12:08:25.195Z,3.27
2019-02-04T12:11:20.041Z,2.33
2019-02-04T12:14:14.120Z,2.77
2019-02-04T12:17:52.747Z,2.85
2019-02-04T12:20:46.054Z,2.33
2019-02-04T12:23:40.135Z,1.98
2019-02-04T12:26:33.193Z,2.58
2019-02-04T12:29:26.247Z,2.75
2019-02-04T12:32:19.047Z,3.50
2019-02-04T12:35:12.102Z,2.98
2019-02-04T12:38:05.422Z,3.02
2019-02-04T12:40:58.473Z,3.35
2019-02-04T12:43:51.536Z,2.33
2019-02-04T12:46:48.745Z,3.10
2019-02-04T12:49:38.920Z,3.05
2019-02-04T12:52:28.134Z,3.22
2019-02-04T12:55:21.446Z,2.25
2019-02-04T12:58:23.463Z,3.33
2019-02-04T13:01:16.773Z,2.90
2019-02-04T13:04:09.588Z,2.40
2019-02-04T13:07:02.635Z,2.70
2019-02-04T13:09:55.687Z,2.70
2019-02-04T13:12:56.167Z,2.55
2019-02-04T13:15:48.972Z,2.92
2019-02-04T13:18:42.031Z,2.40
2019-02-04T13:21:45.020Z,3.25
2019-02-04T13:24:30.185Z,2.12
2019-02-04T13:27:23.247Z,3.50
2019-02-04T13:30:16.300Z,2.45
2019-02-04T13:33:09.355Z,2.92
2019-02-04T13:36:02.408Z,3.22
2019-02-04T13:38:55.474Z,2.98
2019-02-04T13:41:49.037Z,3.02
2019-02-04T13:44:42.093Z,2.85
2019-02-04T13:47:34.888Z,2.33
2019-02-04T13:50:28.456Z,2.95
2019-02-04T13:53:21.767Z,3.37
2019-02-04T13:56:14.585Z,1.95
2019-02-04T13:59:15.307Z,3.95
2019-02-04T14:02:08.104Z,2.60
2019-02-04T14:05:00.903Z,2.35
2019-02-04T14:07:56.776Z,3.55
2019-02-04T14:10:50.599Z,4.00
2019-02-04T14:13:43.656Z,1.90
2019-02-04T14:16:36.733Z,2.72
2019-02-04T14:19:29.514Z,2.50
2019-02-04T14:22:22.829Z,2.83
2019-02-04T14:25:15.877Z,3.27
2019-02-04T14:28:08.943Z,3.20
2019-02-04T14:31:01.991Z,2.72
2019-02-04T14:33:51.207Z,2.95
2019-02-04T14:36:44.015Z,2.65
2019-02-04T14:39:38.086Z,4.08
2019-02-04T14:42:32.680Z,2.92
2019-02-04T14:45:34.952Z,3.00
2019-02-04T14:48:39.273Z,2.92
2019-02-04T14:51:56.136Z,3.20
2019-02-04T14:55:09.674Z,2.42
2019-02-04T14:58:18.091Z,3.33
2019-02-04T15:01:20.874Z,3.95
2019-02-04T15:04:27.571Z,3.50
2019-02-04T15:07:30.538Z,3.98
2019-02-04T15:10:44.845Z,3.00
2019-02-04T15:13:47.878Z,1.62
2019-02-04T15:16:52.454Z,3.00
2019-02-04T15:20:11.880Z,3.08
2019-02-04T15:23:16.456Z,3.52
2019-02-04T15:26:39.211Z,2.72
2019-02-04T15:29:49.669Z,4.67
2019-02-04T15:32:53.994Z,3.15
2019-02-04T15:35:59.427Z,2.83
2019-02-04T15:39:01.350Z,3.22
2019-02-04T15:42:08.743Z,4.60
2019-02-04T15:45:25.354Z,3.98
2019-02-04T15:48:23.782Z,3.30
2019-02-04T15:51:21.961Z,3.77
2019-02-04T15:54:13.993Z,3.87
2019-02-04T15:57:02.949Z,4.47
2019-02-04T15:59:56.264Z,4.22
2019-02-04T16:02:49.064Z,4.30
2019-02-04T16:05:42.122Z,4.12
2019-02-04T16:08:34.923Z,4.28
2019-02-04T16:11:28.231Z,3.35
2019-02-04T16:14:21.030Z,4.12
2019-02-04T16:17:14.087Z,4.97
2019-02-04T16:20:06.887Z,5.28
2019-02-04T16:23:02.509Z,3.98
2019-02-04T16:25:55.303Z,4.78
2019-02-04T16:28:48.365Z,4.80
2019-02-04T16:31:41.159Z,4.83
2019-02-04T16:34:34.224Z,5.15
2019-02-04T16:37:27.279Z,5.47
2019-02-04T16:40:20.072Z,4.70
2019-02-04T16:43:13.126Z,4.87
2019-02-04T16:46:13.869Z,6.35
2019-02-04T16:49:14.343Z,5.45
2019-02-04T16:52:08.423Z,4.70
2019-02-04T16:55:01.479Z,5.65
2019-02-04T16:57:54.754Z,4.10
2019-02-04T17:00:49.641Z,5.00
2019-02-04T17:03:42.696Z,5.87
2019-02-04T17:06:36.777Z,4.80
2019-02-04T17:12:50.283Z,5.70
2019-02-04T17:15:43.338Z,5.47
2019-02-04T17:18:36.392Z,5.92
2019-02-04T17:21:29.707Z,6.28
2019-02-04T17:24:22.762Z,6.37
2019-02-04T17:27:15.821Z,5.90
2019-02-04T17:30:33.959Z,6.05
2019-02-04T17:33:26.762Z,8.00
2019-02-04T17:36:19.560Z,6.58
2019-02-04T17:39:13.128Z,5.22
2019-02-04T17:42:02.345Z,5.80
2019-02-04T17:44:55.399Z,5.45
2019-02-04T17:47:44.616Z,6.47
2019-02-04T17:50:38.957Z,5.50
2019-02-04T17:53:34.387Z,5.65
2019-02-04T17:56:19.686Z,6.30
2019-02-04T18:02:46.509Z,5.15
2019-02-04T18:05:39.558Z,4.80
2019-02-04T18:08:32.625Z,4.62
2019-02-04T18:11:19.945Z,4.50
2019-02-04T18:14:13.104Z,5.55
2019-02-04T18:17:06.409Z,5.15
2019-02-04T18:19:59.725Z,4.70
2019-02-04T18:22:52.794Z,5.60
2019-02-04T18:25:53.511Z,6.80
2019-02-04T18:28:42.533Z,5.53
2019-02-04T18:31:35.536Z,5.92
2019-02-04T18:34:28.328Z,4.92
2019-02-04T18:37:21.397Z,6.22
2019-02-04T18:40:14.697Z,5.47
2019-02-04T18:43:03.915Z,6.45
2019-02-04T18:45:56.966Z,6.47
2019-02-04T18:48:50.283Z,6.67
2019-02-04T18:51:43.342Z,5.30
2019-02-04T18:54:36.394Z,4.42
2019-02-04T18:57:29.448Z,4.42
2019-02-04T19:00:22.505Z,5.80
2019-02-04T19:03:17.683Z,4.60
2019-02-04T19:06:10.406Z,5.20
2019-02-04T19:08:59.627Z,5.72
2019-02-04T19:11:55.348Z,4.53
2019-02-04T19:14:46.250Z,4.67
2019-02-04T19:17:42.124Z,4.92
2019-02-04T19:20:36.200Z,5.95
2019-02-04T19:23:28.999Z,3.22
2019-02-04T19:26:22.058Z,3.77
2019-02-04T19:29:15.121Z,6.55
2019-02-04T19:32:08.170Z,4.65
2019-02-04T19:35:01.482Z,4.05
2019-02-04T19:37:54.791Z,4.55
2019-02-04T19:40:47.591Z,3.87
2019-02-04T19:43:40.397Z,4.20
2019-02-04T19:46:33.707Z,6.15
2019-02-04T19:49:28.302Z,4.97
2019-02-04T19:52:21.611Z,4.95
2019-02-04T19:55:14.673Z,4.90
2019-02-04T19:58:07.733Z,4.45
2019-02-04T20:01:00.781Z,5.42
2019-02-04T20:03:53.577Z,5.42
2019-02-04T20:06:46.632Z,5.70
2019-02-04T20:09:40.456Z,5.37
2019-02-04T20:12:33.519Z,5.78
2019-02-04T20:15:26.577Z,3.27
2019-02-04T20:18:19.636Z,4.72
2019-02-04T20:21:14.743Z,6.20
2019-02-04T20:24:08.308Z,5.70
2019-02-04T20:27:03.144Z,5.20
2019-02-04T20:29:59.022Z,6.00
2019-02-04T20:32:52.594Z,5.22
2019-02-04T20:36:07.673Z,5.33
2019-02-04T20:39:01.228Z,5.95
2019-02-04T20:41:55.817Z,6.35
2019-02-04T20:44:49.128Z,5.03
2019-02-04T20:47:43.210Z,5.70
2019-02-04T20:50:45.483Z,5.05
2019-02-04T20:53:35.209Z,5.75
2019-02-04T20:56:25.457Z,4.47
2019-02-04T20:59:19.787Z,5.10
2019-02-04T21:02:12.848Z,5.58
2019-02-04T21:05:06.665Z,4.87
2019-02-04T21:08:04.844Z,4.12
2019-02-04T21:10:57.896Z,5.70
2019-02-04T21:13:50.954Z,4.03
2019-02-04T21:16:44.779Z,2.17
2019-02-04T21:19:38.599Z,5.45
2019-02-04T21:22:32.041Z,5.42
2019-02-04T21:25:25.037Z,5.75
2019-02-04T21:28:14.185Z,4.78
2019-02-04T21:31:07.497Z,4.65
2019-02-04T21:34:00.300Z,5.85
2019-02-04T21:36:53.352Z,4.72
2019-02-04T21:39:46.409Z,5.08
2019-02-04T21:42:39.721Z,5.33
2019-02-04T21:45:41.224Z,4.80
2019-02-04T21:48:34.543Z,4.22
2019-02-04T21:51:27.596Z,4.17
2019-02-04T21:54:16.044Z,5.20
2019-02-04T21:57:10.382Z,4.10
2019-02-04T22:00:04.986Z,4.15
2019-02-04T22:02:57.515Z,3.37
2019-02-04T22:05:51.345Z,3.62
2019-02-04T22:08:44.139Z,4.72
2019-02-04T22:11:37.449Z,3.10
2019-02-04T22:14:30.255Z,2.58
2019-02-04T22:17:19.209Z,4.83
2019-02-04T22:20:12.523Z,2.92
2019-02-04T22:23:13.261Z,4.58
2019-02-04T22:26:06.324Z,2.87
2019-02-04T22:28:59.879Z,3.62
2019-02-04T22:31:53.198Z,3.58
2019-02-04T22:34:46.253Z,3.65
2019-02-04T22:37:40.333Z,3.70
2019-02-04T22:40:35.177Z,3.45
2019-02-04T22:43:28.233Z,4.20
2019-02-04T22:46:21.288Z,4.12
2019-02-04T22:49:14.092Z,3.55
2019-02-04T22:52:07.148Z,4.33
2019-02-04T22:54:59.944Z,4.22
2019-02-04T22:57:55.823Z,2.85
2019-02-04T23:01:04.490Z,4.42
2019-02-04T23:03:58.828Z,3.50
2019-02-04T23:06:51.651Z,3.77
2019-02-04T23:09:47.241Z,3.10
2019-02-04T23:12:40.298Z,3.20
2019-02-04T23:15:33.353Z,3.45
2019-02-04T23:18:26.415Z,4.45
2019-02-04T23:21:19.721Z,3.00
2019-02-04T23:24:12.777Z,3.70
2019-02-04T23:27:06.088Z,4.25
2019-02-04T23:29:58.889Z,3.08
2019-02-04T23:32:51.945Z,3.65
2019-02-04T23:35:38.789Z,3.30
2019-02-04T23:38:28.018Z,3.42
2019-02-04T23:41:20.870Z,3.05
2019-02-04T23:44:13.928Z,3.10
2019-02-04T23:47:06.982Z,3.50
2019-02-04T23:50:00.344Z,3.50
2019-02-04T23:52:53.352Z,3.65
2019-02-04T23:55:54.357Z,2.80
2019-02-04T23:58:46.888Z,3.60
